sensor_id;sensor_type;location;lat;lon;timestamp;pressure;altitude;pressure_sealevel;temperature;humidity
61484;BME280;47349;55.640;37.692;2023-04-22T00:01:24;98749.25;;;9.88;47.70
61484;BME280;47349;55.640;37.692;2023-04-22T00:03:52;98746.75;;;9.86;47.86
61484;BME280;47349;55.640;37.692;2023-04-22T00:06:33;98736.47;;;9.90;48.20
61484;BME280;47349;55.640;37.692;2023-04-22T00:09:09;98741.22;;;9.88;47.94
61484;BME280;47349;55.640;37.692;2023-04-22T00:11:37;98741.16;;;9.81;48.37
61484;BME280;47349;55.640;37.692;2023-04-22T00:14:08;98749.38;;;9.79;47.90
61484;BME280;47349;55.640;37.692;2023-04-22T00:16:36;98748.31;;;9.74;48.90
61484;BME280;47349;55.640;37.692;2023-04-22T00:19:03;98742.34;;;9.72;48.30
61484;BME280;47349;55.640;37.692;2023-04-22T00:21:35;98744.69;;;9.60;48.58
61484;BME280;47349;55.640;37.692;2023-04-22T00:24:07;98738.06;;;9.56;48.81
61484;BME280;47349;55.640;37.692;2023-04-22T00:26:35;98743.66;;;9.61;48.49
61484;BME280;47349;55.640;37.692;2023-04-22T00:29:16;98739.13;;;9.62;48.34
61484;BME280;47349;55.640;37.692;2023-04-22T00:31:57;98747.13;;;9.55;48.71
61484;BME280;47349;55.640;37.692;2023-04-22T00:34:38;98748.66;;;9.43;48.88
61484;BME280;47349;55.640;37.692;2023-04-22T00:37:19;98745.13;;;9.42;48.75
61484;BME280;47349;55.640;37.692;2023-04-22T00:40:00;98748.00;;;9.41;49.39
61484;BME280;47349;55.640;37.692;2023-04-22T00:42:41;98744.50;;;9.40;49.41
61484;BME280;47349;55.640;37.692;2023-04-22T00:45:18;98739.53;;;9.37;49.61
61484;BME280;47349;55.640;37.692;2023-04-22T00:47:55;98739.97;;;9.41;49.57
61484;BME280;47349;55.640;37.692;2023-04-22T00:50:23;98734.00;;;9.39;49.31
61484;BME280;47349;55.640;37.692;2023-04-22T00:52:50;98736.13;;;9.43;49.16
61484;BME280;47349;55.640;37.692;2023-04-22T00:55:31;98746.16;;;9.41;49.86
61484;BME280;47349;55.640;37.692;2023-04-22T00:58:02;98738.72;;;9.37;50.84
61484;BME280;47349;55.640;37.692;2023-04-22T01:00:43;98746.66;;;9.30;51.25
61484;BME280;47349;55.640;37.692;2023-04-22T01:03:25;98745.97;;;9.21;51.28
61484;BME280;47349;55.640;37.692;2023-04-22T01:05:54;98741.59;;;9.14;50.92
61484;BME280;47349;55.640;37.692;2023-04-22T01:08:23;98738.44;;;9.10;50.86
61484;BME280;47349;55.640;37.692;2023-04-22T01:11:03;98736.41;;;9.12;51.26
61484;BME280;47349;55.640;37.692;2023-04-22T01:13:31;98734.75;;;9.11;51.67
61484;BME280;47349;55.640;37.692;2023-04-22T01:16:12;98729.22;;;9.13;50.52
61484;BME280;47349;55.640;37.692;2023-04-22T01:18:42;98732.28;;;9.10;50.83
61484;BME280;47349;55.640;37.692;2023-04-22T01:21:23;98733.47;;;9.07;51.18
61484;BME280;47349;55.640;37.692;2023-04-22T01:24:06;98731.16;;;9.04;51.97
61484;BME280;47349;55.640;37.692;2023-04-22T01:26:52;98733.41;;;9.00;51.68
61484;BME280;47349;55.640;37.692;2023-04-22T01:29:19;98736.75;;;8.88;52.29
61484;BME280;47349;55.640;37.692;2023-04-22T01:32:01;98735.09;;;8.87;52.35
61484;BME280;47349;55.640;37.692;2023-04-22T01:34:42;98738.59;;;8.87;52.70
61484;BME280;47349;55.640;37.692;2023-04-22T01:37:16;98728.09;;;8.86;52.50
61484;BME280;47349;55.640;37.692;2023-04-22T01:39:52;98718.41;;;8.85;52.07
61484;BME280;47349;55.640;37.692;2023-04-22T01:42:33;98723.75;;;8.85;53.11
61484;BME280;47349;55.640;37.692;2023-04-22T01:45:00;98727.84;;;8.81;52.16
61484;BME280;47349;55.640;37.692;2023-04-22T01:47:28;98724.91;;;8.75;53.20
61484;BME280;47349;55.640;37.692;2023-04-22T01:50:09;98725.53;;;8.78;52.85
61484;BME280;47349;55.640;37.692;2023-04-22T01:52:38;98723.88;;;8.77;53.31
61484;BME280;47349;55.640;37.692;2023-04-22T01:55:07;98724.00;;;8.68;53.60
61484;BME280;47349;55.640;37.692;2023-04-22T01:57:41;98725.56;;;8.63;53.71
61484;BME280;47349;55.640;37.692;2023-04-22T02:00:09;98726.59;;;8.62;53.82
61484;BME280;47349;55.640;37.692;2023-04-22T02:02:50;98727.91;;;8.51;54.28
61484;BME280;47349;55.640;37.692;2023-04-22T02:05:31;98723.66;;;8.42;54.66
61484;BME280;47349;55.640;37.692;2023-04-22T02:08:11;98730.25;;;8.31;54.21
61484;BME280;47349;55.640;37.692;2023-04-22T02:10:52;98728.53;;;8.23;54.49
61484;BME280;47349;55.640;37.692;2023-04-22T02:13:37;98730.44;;;8.30;54.31
61484;BME280;47349;55.640;37.692;2023-04-22T02:16:13;98735.16;;;8.28;54.47
61484;BME280;47349;55.640;37.692;2023-04-22T02:18:40;98730.81;;;8.27;54.55
61484;BME280;47349;55.640;37.692;2023-04-22T02:21:21;98735.31;;;8.26;54.46
61484;BME280;47349;55.640;37.692;2023-04-22T02:24:02;98732.84;;;8.24;54.36
61484;BME280;47349;55.640;37.692;2023-04-22T02:26:42;98730.63;;;8.28;54.17
61484;BME280;47349;55.640;37.692;2023-04-22T02:29:10;98731.72;;;8.34;53.76
61484;BME280;47349;55.640;37.692;2023-04-22T02:31:57;98732.47;;;8.28;53.71
61484;BME280;47349;55.640;37.692;2023-04-22T02:34:25;98735.78;;;8.30;53.71
61484;BME280;47349;55.640;37.692;2023-04-22T02:36:54;98733.84;;;8.23;54.06
61484;BME280;47349;55.640;37.692;2023-04-22T02:39:34;98737.81;;;8.28;53.94
61484;BME280;47349;55.640;37.692;2023-04-22T02:42:02;98741.47;;;8.27;54.34
61484;BME280;47349;55.640;37.692;2023-04-22T02:44:43;98742.50;;;8.25;54.15
61484;BME280;47349;55.640;37.692;2023-04-22T02:47:09;98741.78;;;8.32;54.41
61484;BME280;47349;55.640;37.692;2023-04-22T02:49:38;98745.91;;;8.34;54.10
61484;BME280;47349;55.640;37.692;2023-04-22T02:52:08;98740.38;;;8.36;54.13
61484;BME280;47349;55.640;37.692;2023-04-22T02:54:36;98743.03;;;8.36;54.27
61484;BME280;47349;55.640;37.692;2023-04-22T02:57:05;98742.22;;;8.35;54.58
61484;BME280;47349;55.640;37.692;2023-04-22T02:59:47;98743.44;;;8.33;55.36
61484;BME280;47349;55.640;37.692;2023-04-22T03:02:29;98746.09;;;8.33;54.82
61484;BME280;47349;55.640;37.692;2023-04-22T03:05:12;98749.41;;;8.35;54.71
61484;BME280;47349;55.640;37.692;2023-04-22T03:07:54;98747.44;;;8.37;54.30
61484;BME280;47349;55.640;37.692;2023-04-22T03:10:27;98748.38;;;8.36;54.26
61484;BME280;47349;55.640;37.692;2023-04-22T03:12:55;98740.03;;;8.39;54.67
61484;BME280;47349;55.640;37.692;2023-04-22T03:15:37;98746.03;;;8.41;54.27
61484;BME280;47349;55.640;37.692;2023-04-22T03:18:11;98750.44;;;8.48;54.16
61484;BME280;47349;55.640;37.692;2023-04-22T03:20:52;98750.38;;;8.42;54.37
61484;BME280;47349;55.640;37.692;2023-04-22T03:23:33;98744.34;;;8.55;54.65
61484;BME280;47349;55.640;37.692;2023-04-22T03:26:03;98748.13;;;8.60;55.06
61484;BME280;47349;55.640;37.692;2023-04-22T03:28:44;98753.28;;;8.77;54.63
61484;BME280;47349;55.640;37.692;2023-04-22T03:31:25;98746.75;;;8.64;54.10
61484;BME280;47349;55.640;37.692;2023-04-22T03:34:01;98752.47;;;8.61;54.89
61484;BME280;47349;55.640;37.692;2023-04-22T03:36:44;98753.19;;;8.55;54.48
61484;BME280;47349;55.640;37.692;2023-04-22T03:39:14;98758.94;;;8.52;54.05
61484;BME280;47349;55.640;37.692;2023-04-22T03:41:43;98756.53;;;8.57;55.30
61484;BME280;47349;55.640;37.692;2023-04-22T03:44:25;98758.09;;;8.66;54.23
61484;BME280;47349;55.640;37.692;2023-04-22T03:47:06;98762.66;;;8.72;54.07
61484;BME280;47349;55.640;37.692;2023-04-22T03:49:54;98767.66;;;8.75;53.50
61484;BME280;47349;55.640;37.692;2023-04-22T03:52:35;98763.56;;;8.80;54.06
61484;BME280;47349;55.640;37.692;2023-04-22T03:55:19;98773.53;;;8.86;53.77
61484;BME280;47349;55.640;37.692;2023-04-22T03:57:50;98769.19;;;8.85;53.79
61484;BME280;47349;55.640;37.692;2023-04-22T04:00:33;98768.25;;;8.92;53.42
61484;BME280;47349;55.640;37.692;2023-04-22T04:03:32;98765.91;;;9.04;53.43
61484;BME280;47349;55.640;37.692;2023-04-22T04:06:05;98769.31;;;9.13;52.92
61484;BME280;47349;55.640;37.692;2023-04-22T04:08:46;98767.81;;;9.25;52.49
61484;BME280;47349;55.640;37.692;2023-04-22T04:11:29;98770.75;;;9.30;52.16
61484;BME280;47349;55.640;37.692;2023-04-22T04:14:10;98771.75;;;9.29;52.59
61484;BME280;47349;55.640;37.692;2023-04-22T04:16:54;98775.44;;;9.28;52.36
61484;BME280;47349;55.640;37.692;2023-04-22T04:19:36;98777.72;;;9.31;52.31
61484;BME280;47349;55.640;37.692;2023-04-22T04:22:20;98783.53;;;9.35;52.10
61484;BME280;47349;55.640;37.692;2023-04-22T04:25:02;98782.78;;;9.41;52.04
61484;BME280;47349;55.640;37.692;2023-04-22T04:27:45;98781.88;;;9.34;52.30
61484;BME280;47349;55.640;37.692;2023-04-22T04:30:26;98778.56;;;9.32;52.15
61484;BME280;47349;55.640;37.692;2023-04-22T04:33:09;98778.75;;;9.30;52.07
61484;BME280;47349;55.640;37.692;2023-04-22T04:35:51;98777.78;;;9.38;52.41
61484;BME280;47349;55.640;37.692;2023-04-22T04:38:28;98777.34;;;9.56;50.83
61484;BME280;47349;55.640;37.692;2023-04-22T04:41:08;98775.13;;;9.59;51.40
61484;BME280;47349;55.640;37.692;2023-04-22T04:43:49;98775.03;;;9.67;51.54
61484;BME280;47349;55.640;37.692;2023-04-22T04:46:33;98778.31;;;9.69;50.98
61484;BME280;47349;55.640;37.692;2023-04-22T04:49:14;98787.38;;;9.68;51.07
61484;BME280;47349;55.640;37.692;2023-04-22T04:51:58;98785.97;;;9.72;50.85
61484;BME280;47349;55.640;37.692;2023-04-22T04:54:39;98787.81;;;9.72;50.87
61484;BME280;47349;55.640;37.692;2023-04-22T04:57:20;98784.53;;;9.76;51.14
61484;BME280;47349;55.640;37.692;2023-04-22T05:00:01;98780.34;;;9.89;50.56
61484;BME280;47349;55.640;37.692;2023-04-22T05:02:43;98788.84;;;9.99;50.89
61484;BME280;47349;55.640;37.692;2023-04-22T05:05:11;98791.53;;;9.99;50.64
61484;BME280;47349;55.640;37.692;2023-04-22T05:07:52;98793.84;;;10.02;50.60
61484;BME280;47349;55.640;37.692;2023-04-22T05:10:37;98794.13;;;10.14;50.06
61484;BME280;47349;55.640;37.692;2023-04-22T05:13:18;98793.00;;;10.29;50.31
61484;BME280;47349;55.640;37.692;2023-04-22T05:15:59;98785.88;;;10.37;49.91
61484;BME280;47349;55.640;37.692;2023-04-22T05:18:42;98786.34;;;10.47;49.61
61484;BME280;47349;55.640;37.692;2023-04-22T05:21:23;98792.63;;;10.67;48.57
61484;BME280;47349;55.640;37.692;2023-04-22T05:24:05;98790.41;;;10.77;49.02
61484;BME280;47349;55.640;37.692;2023-04-22T05:26:46;98791.91;;;10.87;47.92
61484;BME280;47349;55.640;37.692;2023-04-22T05:29:28;98783.91;;;10.93;47.27
61484;BME280;47349;55.640;37.692;2023-04-22T05:31:58;98789.25;;;10.93;47.55
61484;BME280;47349;55.640;37.692;2023-04-22T05:34:41;98787.03;;;11.03;47.04
61484;BME280;47349;55.640;37.692;2023-04-22T05:37:25;98790.16;;;11.14;46.54
61484;BME280;47349;55.640;37.692;2023-04-22T05:39:57;98790.13;;;11.07;46.06
61484;BME280;47349;55.640;37.692;2023-04-22T05:42:38;98792.25;;;11.18;46.01
61484;BME280;47349;55.640;37.692;2023-04-22T05:45:19;98791.78;;;11.08;45.86
61484;BME280;47349;55.640;37.692;2023-04-22T05:48:06;98789.56;;;11.18;46.31
61484;BME280;47349;55.640;37.692;2023-04-22T05:50:59;98799.31;;;11.32;46.30
61484;BME280;47349;55.640;37.692;2023-04-22T05:53:41;98791.88;;;11.35;45.74
61484;BME280;47349;55.640;37.692;2023-04-22T05:56:23;98788.59;;;11.46;45.64
61484;BME280;47349;55.640;37.692;2023-04-22T05:58:52;98784.06;;;11.53;43.78
61484;BME280;47349;55.640;37.692;2023-04-22T06:01:32;98786.78;;;11.66;43.57
61484;BME280;47349;55.640;37.692;2023-04-22T06:04:04;98782.88;;;11.75;43.96
61484;BME280;47349;55.640;37.692;2023-04-22T06:07:04;98792.78;;;11.81;43.29
61484;BME280;47349;55.640;37.692;2023-04-22T06:09:33;98787.81;;;11.78;43.19
61484;BME280;47349;55.640;37.692;2023-04-22T06:12:15;98794.84;;;11.66;43.55
61484;BME280;47349;55.640;37.692;2023-04-22T06:14:57;98792.34;;;11.78;43.14
61484;BME280;47349;55.640;37.692;2023-04-22T06:17:39;98787.63;;;11.93;43.00
61484;BME280;47349;55.640;37.692;2023-04-22T06:20:20;98795.28;;;11.96;42.91
61484;BME280;47349;55.640;37.692;2023-04-22T06:22:52;98794.03;;;11.99;42.59
61484;BME280;47349;55.640;37.692;2023-04-22T06:25:21;98790.75;;;12.10;42.37
61484;BME280;47349;55.640;37.692;2023-04-22T06:27:48;98791.16;;;12.07;42.20
61484;BME280;47349;55.640;37.692;2023-04-22T06:33:19;98783.91;;;11.81;42.74
61484;BME280;47349;55.640;37.692;2023-04-22T06:36:09;98785.16;;;11.98;42.31
61484;BME280;47349;55.640;37.692;2023-04-22T06:38:56;98784.53;;;12.03;42.43
61484;BME280;47349;55.640;37.692;2023-04-22T06:41:56;98784.97;;;12.20;42.25
61484;BME280;47349;55.640;37.692;2023-04-22T06:44:47;98780.38;;;12.27;42.42
61484;BME280;47349;55.640;37.692;2023-04-22T06:47:56;98782.66;;;12.37;41.67
61484;BME280;47349;55.640;37.692;2023-04-22T06:51:03;98778.91;;;12.51;41.36
61484;BME280;47349;55.640;37.692;2023-04-22T06:53:44;98766.47;;;12.63;41.62
61484;BME280;47349;55.640;37.692;2023-04-22T06:56:20;98775.59;;;12.62;40.64
61484;BME280;47349;55.640;37.692;2023-04-22T06:59:01;98780.38;;;12.40;40.75
61484;BME280;47349;55.640;37.692;2023-04-22T07:01:29;98778.72;;;12.32;41.20
61484;BME280;47349;55.640;37.692;2023-04-22T07:06:58;98771.47;;;12.53;41.88
61484;BME280;47349;55.640;37.692;2023-04-22T07:09:58;98773.72;;;12.56;41.44
61484;BME280;47349;55.640;37.692;2023-04-22T07:12:47;98771.56;;;12.84;41.50
61484;BME280;47349;55.640;37.692;2023-04-22T07:15:15;98776.19;;;12.64;41.25
61484;BME280;47349;55.640;37.692;2023-04-22T07:17:56;98760.25;;;12.69;41.25
61484;BME280;47349;55.640;37.692;2023-04-22T07:20:24;98771.78;;;12.76;41.26
61484;BME280;47349;55.640;37.692;2023-04-22T07:22:53;98772.09;;;13.06;40.25
61484;BME280;47349;55.640;37.692;2023-04-22T07:25:25;98781.31;;;12.79;40.51
61484;BME280;47349;55.640;37.692;2023-04-22T07:28:01;98772.84;;;12.75;40.70
61484;BME280;47349;55.640;37.692;2023-04-22T07:30:42;98776.13;;;12.84;40.51
61484;BME280;47349;55.640;37.692;2023-04-22T07:33:09;98764.13;;;12.80;40.20
61484;BME280;47349;55.640;37.692;2023-04-22T07:35:37;98768.00;;;12.91;39.53
61484;BME280;47349;55.640;37.692;2023-04-22T07:38:13;98773.56;;;12.96;39.35
61484;BME280;47349;55.640;37.692;2023-04-22T07:40:49;98776.78;;;13.31;39.19
61484;BME280;47349;55.640;37.692;2023-04-22T07:43:16;98774.94;;;13.56;38.61
61484;BME280;47349;55.640;37.692;2023-04-22T07:45:44;98767.94;;;13.80;38.46
61484;BME280;47349;55.640;37.692;2023-04-22T07:48:24;98759.84;;;13.55;38.07
61484;BME280;47349;55.640;37.692;2023-04-22T07:50:52;98772.16;;;13.45;38.57
61484;BME280;47349;55.640;37.692;2023-04-22T07:53:33;98775.25;;;13.42;37.95
61484;BME280;47349;55.640;37.692;2023-04-22T07:56:14;98783.25;;;13.55;38.38
61484;BME280;47349;55.640;37.692;2023-04-22T07:58:55;98781.22;;;13.44;38.80
61484;BME280;47349;55.640;37.692;2023-04-22T08:01:27;98773.69;;;13.27;38.29
61484;BME280;47349;55.640;37.692;2023-04-22T08:03:55;98781.50;;;13.35;37.97
61484;BME280;47349;55.640;37.692;2023-04-22T08:06:22;98781.97;;;13.26;38.89
61484;BME280;47349;55.640;37.692;2023-04-22T08:09:00;98778.91;;;13.16;38.77
61484;BME280;47349;55.640;37.692;2023-04-22T08:11:30;98775.81;;;13.12;38.69
61484;BME280;47349;55.640;37.692;2023-04-22T08:13:59;98786.63;;;12.99;39.14
61484;BME280;47349;55.640;37.692;2023-04-22T08:16:27;98774.88;;;12.86;39.37
61484;BME280;47349;55.640;37.692;2023-04-22T08:18:55;98771.75;;;12.90;39.37
61484;BME280;47349;55.640;37.692;2023-04-22T08:21:23;98797.63;;;12.84;40.03
61484;BME280;47349;55.640;37.692;2023-04-22T08:23:50;98784.78;;;12.93;39.98
61484;BME280;47349;55.640;37.692;2023-04-22T08:26:19;98795.94;;;12.90;39.85
61484;BME280;47349;55.640;37.692;2023-04-22T08:28:56;98787.28;;;12.81;39.70
61484;BME280;47349;55.640;37.692;2023-04-22T08:31:22;98797.41;;;12.85;39.27
61484;BME280;47349;55.640;37.692;2023-04-22T08:33:50;98769.44;;;13.00;37.69
61484;BME280;47349;55.640;37.692;2023-04-22T08:36:17;98790.56;;;12.90;37.96
61484;BME280;47349;55.640;37.692;2023-04-22T08:38:44;98801.78;;;12.86;38.66
61484;BME280;47349;55.640;37.692;2023-04-22T08:41:16;98793.03;;;12.98;38.70
61484;BME280;47349;55.640;37.692;2023-04-22T08:43:45;98798.03;;;12.88;39.22
61484;BME280;47349;55.640;37.692;2023-04-22T08:46:12;98775.63;;;13.07;39.70
61484;BME280;47349;55.640;37.692;2023-04-22T08:48:41;98775.84;;;13.44;38.39
61484;BME280;47349;55.640;37.692;2023-04-22T08:51:08;98781.69;;;13.72;38.35
61484;BME280;47349;55.640;37.692;2023-04-22T08:53:35;98772.28;;;13.81;37.51
61484;BME280;47349;55.640;37.692;2023-04-22T08:56:02;98775.88;;;14.00;36.65
61484;BME280;47349;55.640;37.692;2023-04-22T08:58:30;98771.59;;;14.18;36.30
61484;BME280;47349;55.640;37.692;2023-04-22T09:00:57;98769.75;;;14.36;35.63
61484;BME280;47349;55.640;37.692;2023-04-22T09:03:25;98777.72;;;14.50;36.42
61484;BME280;47349;55.640;37.692;2023-04-22T09:05:52;98787.91;;;14.48;36.25
61484;BME280;47349;55.640;37.692;2023-04-22T09:08:23;98761.94;;;14.28;36.28
61484;BME280;47349;55.640;37.692;2023-04-22T09:10:51;98799.47;;;14.05;36.69
61484;BME280;47349;55.640;37.692;2023-04-22T09:13:32;98770.03;;;13.47;36.86
61484;BME280;47349;55.640;37.692;2023-04-22T09:16:14;98781.72;;;13.34;37.71
61484;BME280;47349;55.640;37.692;2023-04-22T09:18:55;98785.25;;;13.28;38.43
61484;BME280;47349;55.640;37.692;2023-04-22T09:21:25;98779.72;;;13.16;38.38
61484;BME280;47349;55.640;37.692;2023-04-22T09:23:56;98777.25;;;13.08;38.46
61484;BME280;47349;55.640;37.692;2023-04-22T09:26:33;98778.00;;;13.28;38.63
61484;BME280;47349;55.640;37.692;2023-04-22T09:29:00;98771.19;;;13.19;38.21
61484;BME280;47349;55.640;37.692;2023-04-22T09:31:28;98760.56;;;13.37;37.88
61484;BME280;47349;55.640;37.692;2023-04-22T09:34:09;98779.63;;;13.36;37.89
61484;BME280;47349;55.640;37.692;2023-04-22T09:36:55;98789.78;;;13.34;37.54
61484;BME280;47349;55.640;37.692;2023-04-22T09:39:36;98775.44;;;13.47;37.36
61484;BME280;47349;55.640;37.692;2023-04-22T09:42:03;98779.19;;;13.39;37.33
61484;BME280;47349;55.640;37.692;2023-04-22T09:44:47;98776.47;;;13.46;37.34
61484;BME280;47349;55.640;37.692;2023-04-22T09:47:16;98780.94;;;13.58;37.88
61484;BME280;47349;55.640;37.692;2023-04-22T09:49:46;98793.06;;;13.74;37.36
61484;BME280;47349;55.640;37.692;2023-04-22T09:52:29;98792.44;;;13.72;36.95
61484;BME280;47349;55.640;37.692;2023-04-22T09:54:58;98770.56;;;13.87;36.75
61484;BME280;47349;55.640;37.692;2023-04-22T09:57:42;98765.47;;;14.04;36.58
61484;BME280;47349;55.640;37.692;2023-04-22T10:03:15;98773.31;;;14.12;35.88
61484;BME280;47349;55.640;37.692;2023-04-22T10:06:13;98749.06;;;14.55;35.57
61484;BME280;47349;55.640;37.692;2023-04-22T10:08:58;98757.78;;;14.69;35.55
61484;BME280;47349;55.640;37.692;2023-04-22T10:11:42;98752.78;;;14.54;36.63
61484;BME280;47349;55.640;37.692;2023-04-22T10:14:23;98751.09;;;14.35;37.10
61484;BME280;47349;55.640;37.692;2023-04-22T10:17:04;98754.13;;;14.20;37.02
61484;BME280;47349;55.640;37.692;2023-04-22T10:19:32;98754.53;;;14.24;37.02
61484;BME280;47349;55.640;37.692;2023-04-22T10:22:01;98742.00;;;13.86;38.01
61484;BME280;47349;55.640;37.692;2023-04-22T10:24:33;98760.91;;;13.79;37.70
61484;BME280;47349;55.640;37.692;2023-04-22T10:27:15;98774.06;;;13.69;37.21
61484;BME280;47349;55.640;37.692;2023-04-22T10:30:00;98763.44;;;13.99;36.91
61484;BME280;47349;55.640;37.692;2023-04-22T10:32:41;98761.03;;;14.34;37.44
61484;BME280;47349;55.640;37.692;2023-04-22T10:35:09;98764.00;;;14.26;33.79
61484;BME280;47349;55.640;37.692;2023-04-22T10:37:41;98764.31;;;14.18;34.08
61484;BME280;47349;55.640;37.692;2023-04-22T10:44:06;98764.63;;;14.90;33.87
61484;BME280;47349;55.640;37.692;2023-04-22T10:47:37;98767.31;;;14.72;35.21
61484;BME280;47349;55.640;37.692;2023-04-22T10:54:57;98758.03;;;14.24;36.14
61484;BME280;47349;55.640;37.692;2023-04-22T10:58:19;98757.38;;;14.29;36.18
61484;BME280;47349;55.640;37.692;2023-04-22T11:01:40;98773.63;;;14.22;36.28
61484;BME280;47349;55.640;37.692;2023-04-22T11:12:40;98752.88;;;14.66;34.36
61484;BME280;47349;55.640;37.692;2023-04-22T11:16:00;98751.19;;;15.02;33.50
61484;BME280;47349;55.640;37.692;2023-04-22T11:19:18;98746.34;;;15.22;31.94
61484;BME280;47349;55.640;37.692;2023-04-22T11:22:00;98745.19;;;15.60;30.07
61484;BME280;47349;55.640;37.692;2023-04-22T11:24:56;98758.19;;;15.93;30.74
61484;BME280;47349;55.640;37.692;2023-04-22T11:27:46;98753.16;;;15.97;31.06
61484;BME280;47349;55.640;37.692;2023-04-22T11:31:07;98744.13;;;15.61;31.53
61484;BME280;47349;55.640;37.692;2023-04-22T11:33:51;98746.97;;;15.36;32.22
61484;BME280;47349;55.640;37.692;2023-04-22T11:37:25;98753.19;;;15.06;33.48
61484;BME280;47349;55.640;37.692;2023-04-22T11:39:58;98732.16;;;14.97;33.77
61484;BME280;47349;55.640;37.692;2023-04-22T11:42:46;98741.16;;;14.90;33.74
61484;BME280;47349;55.640;37.692;2023-04-22T11:45:23;98754.44;;;14.74;33.87
61484;BME280;47349;55.640;37.692;2023-04-22T11:48:05;98761.25;;;14.76;33.63
61484;BME280;47349;55.640;37.692;2023-04-22T11:50:48;98761.97;;;15.02;33.04
61484;BME280;47349;55.640;37.692;2023-04-22T11:53:20;98757.69;;;15.12;32.78
61484;BME280;47349;55.640;37.692;2023-04-22T11:56:19;98741.41;;;15.49;31.80
61484;BME280;47349;55.640;37.692;2023-04-22T11:59:05;98738.81;;;16.31;30.99
61484;BME280;47349;55.640;37.692;2023-04-22T12:01:48;98726.75;;;16.86;30.30
61484;BME280;47349;55.640;37.692;2023-04-22T12:04:34;98718.38;;;17.44;29.65
61484;BME280;47349;55.640;37.692;2023-04-22T12:07:16;98724.56;;;17.57;28.83
61484;BME280;47349;55.640;37.692;2023-04-22T12:10:05;98717.78;;;17.88;28.10
61484;BME280;47349;55.640;37.692;2023-04-22T12:12:48;98715.75;;;17.78;27.70
61484;BME280;47349;55.640;37.692;2023-04-22T12:15:17;98718.31;;;17.11;28.54
61484;BME280;47349;55.640;37.692;2023-04-22T12:18:00;98720.47;;;17.26;29.01
61484;BME280;47349;55.640;37.692;2023-04-22T12:20:42;98706.66;;;17.39;28.35
61484;BME280;47349;55.640;37.692;2023-04-22T12:23:23;98712.25;;;16.28;29.75
61484;BME280;47349;55.640;37.692;2023-04-22T12:26:13;98734.31;;;15.78;29.81
61484;BME280;47349;55.640;37.692;2023-04-22T12:28:42;98724.25;;;15.55;30.14
61484;BME280;47349;55.640;37.692;2023-04-22T12:31:31;98720.34;;;15.39;30.93
61484;BME280;47349;55.640;37.692;2023-04-22T12:34:12;98725.16;;;15.79;30.65
61484;BME280;47349;55.640;37.692;2023-04-22T12:36:53;98712.75;;;16.25;29.55
61484;BME280;47349;55.640;37.692;2023-04-22T12:39:35;98710.00;;;17.01;28.97
61484;BME280;47349;55.640;37.692;2023-04-22T12:42:17;98712.66;;;17.41;28.40
61484;BME280;47349;55.640;37.692;2023-04-22T12:44:49;98732.53;;;17.18;28.21
61484;BME280;47349;55.640;37.692;2023-04-22T12:47:50;98712.75;;;17.46;27.65
61484;BME280;47349;55.640;37.692;2023-04-22T12:50:29;98698.00;;;17.87;26.99
61484;BME280;47349;55.640;37.692;2023-04-22T12:53:22;98696.59;;;18.02;26.28
61484;BME280;47349;55.640;37.692;2023-04-22T12:55:49;98703.25;;;17.60;26.90
61484;BME280;47349;55.640;37.692;2023-04-22T12:58:22;98700.47;;;18.06;26.02
61484;BME280;47349;55.640;37.692;2023-04-22T13:00:50;98711.63;;;17.92;26.24
61484;BME280;47349;55.640;37.692;2023-04-22T13:03:31;98702.56;;;17.53;26.96
61484;BME280;47349;55.640;37.692;2023-04-22T13:06:13;98706.56;;;17.34;27.17
61484;BME280;47349;55.640;37.692;2023-04-22T13:08:54;98711.00;;;17.40;26.96
61484;BME280;47349;55.640;37.692;2023-04-22T13:11:31;98705.69;;;17.62;26.85
61484;BME280;47349;55.640;37.692;2023-04-22T13:14:23;98701.81;;;17.58;27.19
61484;BME280;47349;55.640;37.692;2023-04-22T13:17:05;98718.44;;;17.78;26.96
61484;BME280;47349;55.640;37.692;2023-04-22T13:20:05;98714.03;;;18.44;26.19
61484;BME280;47349;55.640;37.692;2023-04-22T13:22:46;98710.44;;;18.61;26.07
61484;BME280;47349;55.640;37.692;2023-04-22T13:25:14;98698.09;;;18.92;25.94
61484;BME280;47349;55.640;37.692;2023-04-22T13:27:43;98706.16;;;19.09;25.74
61484;BME280;47349;55.640;37.692;2023-04-22T13:30:11;98707.09;;;18.54;26.22
61484;BME280;47349;55.640;37.692;2023-04-22T13:32:41;98732.16;;;18.22;26.55
61484;BME280;47349;55.640;37.692;2023-04-22T13:35:13;98720.66;;;18.15;26.49
61484;BME280;47349;55.640;37.692;2023-04-22T13:37:40;98709.22;;;18.52;26.28
61484;BME280;47349;55.640;37.692;2023-04-22T13:40:09;98727.09;;;18.09;26.66
61484;BME280;47349;55.640;37.692;2023-04-22T13:42:50;98714.09;;;17.60;27.22
61484;BME280;47349;55.640;37.692;2023-04-22T13:45:32;98717.19;;;17.52;27.47
61484;BME280;47349;55.640;37.692;2023-04-22T13:48:08;98692.50;;;17.99;26.99
61484;BME280;47349;55.640;37.692;2023-04-22T13:50:35;98713.22;;;18.27;26.51
61484;BME280;47349;55.640;37.692;2023-04-22T13:53:02;98715.97;;;18.10;26.36
61484;BME280;47349;55.640;37.692;2023-04-22T13:55:31;98710.91;;;18.36;26.26
61484;BME280;47349;55.640;37.692;2023-04-22T13:57:58;98709.31;;;17.67;27.18
61484;BME280;47349;55.640;37.692;2023-04-22T14:00:26;98715.31;;;17.24;27.32
61484;BME280;47349;55.640;37.692;2023-04-22T14:02:53;98710.50;;;16.98;27.87
61484;BME280;47349;55.640;37.692;2023-04-22T14:05:20;98717.88;;;16.50;28.32
61484;BME280;47349;55.640;37.692;2023-04-22T14:08:06;98725.19;;;16.26;28.79
61484;BME280;47349;55.640;37.692;2023-04-22T14:10:32;98702.63;;;16.09;28.97
61484;BME280;47349;55.640;37.692;2023-04-22T14:12:59;98709.31;;;16.41;28.52
61484;BME280;47349;55.640;37.692;2023-04-22T14:15:26;98713.50;;;17.13;27.92